Time;durP1;ratioP1;P1;durP2;ratioP2;P2;SDS_P1;SDS_P2;PMS_P1;PMS_P2;Temp;Humidity;BMP_temperature;BMP_pressure;BME280_temperature;BME280_humidity;BME280_pressure;Samples;Min_cycle;Max_cycle;Signal;HPM_P1;HPM_P2
2023/02/23 00:01:49;;;;;;;;;;;20.30;34.20;;;;;;8364915;28;19990;-44
2023/02/23 00:05:49;;;;;;;;;;;20.30;34.10;;;;;;8369399;28;20443;-44
2023/02/23 00:09:51;;;;;;;;;;;20.30;34.10;;;;;;8368751;28;20377;-43
2023/02/23 00:13:52;;;;;;;;;;;20.30;34.10;;;;;;8369242;28;20348;-45
2023/02/23 00:17:54;;;;;;;;;;;20.20;34.00;;;;;;8368918;28;19942;-45
2023/02/23 00:21:57;;;;;;;;;;;20.30;34.10;;;;;;8368571;28;19995;-44
2023/02/23 00:25:58;;;;;;;;;;;20.20;34.10;;;;;;8368830;28;19917;-43
2023/02/23 00:29:58;;;;;;;;;;;20.20;34.10;;;;;;8368496;28;20004;-44
2023/02/23 00:34:00;;;;;;;;;;;20.20;34.20;;;;;;8367845;28;19981;-43
2023/02/23 00:38:01;;;;;;;;;;;20.20;34.10;;;;;;8368193;28;19967;-43
2023/02/23 00:42:02;;;;;;;;;;;20.10;34.30;;;;;;8368530;28;19994;-43
2023/02/23 00:46:05;;;;;;;;;;;20.20;34.40;;;;;;8366934;28;19977;-44
2023/02/23 00:50:06;;;;;;;;;;;20.10;34.20;;;;;;8367957;28;19917;-43
2023/02/23 00:54:07;;;;;;;;;;;20.10;34.20;;;;;;8368023;28;20290;-43
2023/02/23 00:58:08;;;;;;;;;;;20.10;34.30;;;;;;8367223;28;19956;-43
2023/02/23 01:02:09;;;;;;;;;;;20.10;34.30;;;;;;8368155;28;19920;-42
2023/02/23 01:06:11;;;;;;;;;;;20.00;34.30;;;;;;8367638;28;20347;-44
2023/02/23 01:10:18;;;;;;;;;;;20.00;34.30;;;;;;8367417;28;19923;-44
2023/02/23 01:14:20;;;;;;;;;;;20.00;34.30;;;;;;8367188;28;19956;-43
2023/02/23 01:18:21;;;;;;;;;;;20.00;34.40;;;;;;8367208;28;19974;-43
2023/02/23 01:22:21;;;;;;;;;;;20.00;34.30;;;;;;8366687;28;20358;-44
2023/02/23 01:26:23;;;;;;;;;;;19.90;34.40;;;;;;8366808;28;20369;-43
2023/02/23 01:30:24;;;;;;;;;;;20.00;34.50;;;;;;8366774;28;20007;-43
2023/02/23 01:34:24;;;;;;;;;;;19.90;34.40;;;;;;8365831;28;19979;-43
2023/02/23 01:38:25;;;;;;;;;;;19.90;34.40;;;;;;8366825;28;19995;-43
2023/02/23 01:42:25;;;;;;;;;;;19.90;34.50;;;;;;8366510;28;19913;-43
2023/02/23 01:46:26;;;;;;;;;;;19.90;34.50;;;;;;8365819;28;19921;-43
2023/02/23 01:50:29;;;;;;;;;;;19.90;34.60;;;;;;8366222;28;19921;-43
2023/02/23 01:54:32;;;;;;;;;;;19.90;34.50;;;;;;8365281;28;19928;-42
2023/02/23 01:58:32;;;;;;;;;;;19.90;34.50;;;;;;8366089;28;20362;-43
2023/02/23 02:02:33;;;;;;;;;;;19.90;34.50;;;;;;8353812;28;19927;-43
2023/02/23 02:06:34;;;;;;;;;;;19.90;34.60;;;;;;8358142;28;20003;-43
2023/02/23 02:10:38;;;;;;;;;;;19.80;34.60;;;;;;8365712;28;19917;-44
2023/02/23 02:14:39;;;;;;;;;;;19.80;34.60;;;;;;8365685;28;20374;-43
2023/02/23 02:18:42;;;;;;;;;;;19.80;34.60;;;;;;8365151;28;19952;-43
2023/02/23 02:22:47;;;;;;;;;;;19.80;34.60;;;;;;8366218;28;19920;-42
2023/02/23 02:26:50;;;;;;;;;;;19.80;34.60;;;;;;8364554;28;19917;-42
2023/02/23 02:30:51;;;;;;;;;;;19.80;34.60;;;;;;8364643;28;19916;-43
2023/02/23 02:35:00;;;;;;;;;;;19.80;34.70;;;;;;8364701;28;19921;-43
2023/02/23 02:39:36;;;;;;;;;;;19.70;34.70;;;;;;8364862;28;19986;-43
2023/02/23 02:43:49;;;;;;;;;;;19.80;34.70;;;;;;8280533;28;20075;-44
2023/02/23 02:47:56;;;;;;;;;;;19.70;34.70;;;;;;8364984;28;19921;-43
2023/02/23 02:52:00;;;;;;;;;;;19.70;34.80;;;;;;8364454;28;19924;-43
2023/02/23 02:56:04;;;;;;;;;;;19.70;34.80;;;;;;8364073;28;19929;-43
2023/02/23 04:19:31;;;;;;;;;;;19.50;35.00;;;;;;8362141;28;19912;-45
2023/02/23 04:23:33;;;;;;;;;;;19.50;35.00;;;;;;8362929;28;19958;-44
2023/02/23 04:27:34;;;;;;;;;;;19.50;35.00;;;;;;8362039;28;20231;-44
2023/02/23 04:31:34;;;;;;;;;;;19.50;35.00;;;;;;8362751;28;20377;-45
2023/02/23 04:35:35;;;;;;;;;;;19.50;35.00;;;;;;8362000;28;19971;-43
2023/02/23 04:39:35;;;;;;;;;;;19.50;34.90;;;;;;8361801;28;19933;-43
2023/02/23 04:43:36;;;;;;;;;;;19.50;34.90;;;;;;8362354;28;19920;-44
2023/02/23 04:47:36;;;;;;;;;;;19.50;35.00;;;;;;8363492;28;19939;-44
2023/02/23 04:51:37;;;;;;;;;;;19.50;35.00;;;;;;8367775;28;19916;-42
2023/02/23 04:55:37;;;;;;;;;;;19.50;35.00;;;;;;8368002;28;19929;-44
2023/02/23 04:59:38;;;;;;;;;;;19.50;34.90;;;;;;8368246;28;20262;-43
2023/02/23 05:03:38;;;;;;;;;;;19.50;35.00;;;;;;8367581;28;19967;-44
2023/02/23 05:07:39;;;;;;;;;;;19.50;35.00;;;;;;8360354;28;19928;-43
2023/02/23 05:11:41;;;;;;;;;;;19.50;35.00;;;;;;8350472;28;22315;-43
2023/02/23 05:15:41;;;;;;;;;;;19.60;34.90;;;;;;8366733;28;19924;-45
2023/02/23 05:19:42;;;;;;;;;;;19.70;35.30;;;;;;8367773;28;19913;-43
2023/02/23 05:23:42;;;;;;;;;;;19.80;34.70;;;;;;8367496;28;19924;-45
2023/02/23 05:27:43;;;;;;;;;;;19.90;34.60;;;;;;8366960;28;20353;-42
2023/02/23 05:31:43;;;;;;;;;;;20.00;34.50;;;;;;8367034;28;19917;-43
2023/02/23 05:35:43;;;;;;;;;;;20.00;34.40;;;;;;8366816;28;19932;-43
2023/02/23 05:39:45;;;;;;;;;;;20.10;34.60;;;;;;8366343;28;19916;-44
2023/02/23 05:43:46;;;;;;;;;;;20.20;34.50;;;;;;8366467;28;19917;-43
2023/02/23 05:47:46;;;;;;;;;;;20.20;34.50;;;;;;8366705;28;19924;-43
2023/02/23 05:51:47;;;;;;;;;;;20.30;35.00;;;;;;8366004;28;19967;-44
2023/02/23 05:55:47;;;;;;;;;;;20.40;34.50;;;;;;8366012;28;19925;-44
2023/02/23 05:59:48;;;;;;;;;;;20.40;34.50;;;;;;8365666;28;19928;-45
2023/02/23 06:03:48;;;;;;;;;;;20.40;34.40;;;;;;8365527;28;20393;-43
2023/02/23 06:07:49;;;;;;;;;;;20.50;34.60;;;;;;8365715;28;19999;-44
2023/02/23 06:11:50;;;;;;;;;;;20.50;34.40;;;;;;8365755;28;19923;-44
2023/02/23 06:15:50;;;;;;;;;;;20.50;34.40;;;;;;8364864;28;20352;-45
2023/02/23 06:19:51;;;;;;;;;;;20.50;34.40;;;;;;8365444;28;19912;-44
2023/02/23 06:23:52;;;;;;;;;;;20.50;34.50;;;;;;8365161;28;19924;-43
2023/02/23 06:27:53;;;;;;;;;;;20.50;34.40;;;;;;8364434;28;19917;-42
2023/02/23 06:31:54;;;;;;;;;;;20.50;34.50;;;;;;8365358;28;19920;-45
2023/02/23 06:35:54;;;;;;;;;;;20.50;34.40;;;;;;8364620;28;20432;-45
2023/02/23 06:39:54;;;;;;;;;;;20.50;34.50;;;;;;8364485;28;20063;-45
2023/02/23 06:43:55;;;;;;;;;;;20.50;34.50;;;;;;8364580;28;19916;-42
2023/02/23 06:47:56;;;;;;;;;;;20.50;34.60;;;;;;8364513;28;19917;-43
2023/02/23 06:51:57;;;;;;;;;;;20.50;34.60;;;;;;8364479;28;20297;-44
2023/02/23 06:55:57;;;;;;;;;;;20.50;34.60;;;;;;8364495;28;20020;-42
2023/02/23 06:59:58;;;;;;;;;;;20.50;34.60;;;;;;8364805;28;20004;-42
2023/02/23 07:03:58;;;;;;;;;;;20.50;34.60;;;;;;8363472;28;20007;-42
2023/02/23 07:07:59;;;;;;;;;;;20.50;34.60;;;;;;8363897;28;19927;-44
2023/02/23 07:12:00;;;;;;;;;;;20.50;34.60;;;;;;8363572;28;19928;-43
2023/02/23 07:16:00;;;;;;;;;;;20.50;34.50;;;;;;8362959;28;20304;-44
2023/02/23 07:20:01;;;;;;;;;;;20.60;34.60;;;;;;8363970;28;19916;-44
2023/02/23 07:24:03;;;;;;;;;;;20.60;34.60;;;;;;8363367;28;19917;-44
2023/02/23 07:28:04;;;;;;;;;;;20.60;34.60;;;;;;8363015;28;19917;-43
2023/02/23 07:32:04;;;;;;;;;;;20.60;34.60;;;;;;8363556;28;19924;-43
2023/02/23 07:36:05;;;;;;;;;;;20.70;34.60;;;;;;8363112;28;20024;-46
2023/02/23 07:40:05;;;;;;;;;;;20.70;34.60;;;;;;8362898;28;19920;-44
2023/02/23 07:44:06;;;;;;;;;;;20.70;34.50;;;;;;8363127;28;19971;-45
2023/02/23 07:48:07;;;;;;;;;;;20.80;34.60;;;;;;8363155;28;19916;-44
2023/02/23 07:52:07;;;;;;;;;;;20.80;34.60;;;;;;8362734;28;20370;-44
2023/02/23 07:56:09;;;;;;;;;;;20.80;34.60;;;;;;8362611;28;20401;-44
2023/02/23 08:00:10;;;;;;;;;;;20.80;34.60;;;;;;8363163;28;20275;-44
2023/02/23 08:04:10;;;;;;;;;;;20.80;34.50;;;;;;8362221;28;19960;-44
2023/02/23 08:08:11;;;;;;;;;;;20.80;34.50;;;;;;8353357;28;19924;-44
2023/02/23 08:12:11;;;;;;;;;;;20.80;34.60;;;;;;8340516;28;20392;-44
2023/02/23 08:16:12;;;;;;;;;;;20.80;34.60;;;;;;8361795;28;19959;-45
2023/02/23 08:20:13;;;;;;;;;;;20.80;34.60;;;;;;8362561;28;19913;-44
2023/02/23 08:24:14;;;;;;;;;;;20.80;34.70;;;;;;8366856;28;19917;-44
2023/02/23 08:28:14;;;;;;;;;;;20.80;34.70;;;;;;8368104;28;20076;-43
2023/02/23 08:32:15;;;;;;;;;;;20.80;34.70;;;;;;8368410;28;20393;-45
2023/02/23 08:36:15;;;;;;;;;;;20.80;34.70;;;;;;8368347;28;20332;-43
2023/02/23 08:40:17;;;;;;;;;;;20.70;34.70;;;;;;8367950;28;19969;-42
2023/02/23 08:44:17;;;;;;;;;;;20.70;34.80;;;;;;8368283;28;19979;-43
2023/02/23 08:48:18;;;;;;;;;;;20.70;34.80;;;;;;8368162;28;20012;-44
2023/02/23 08:52:19;;;;;;;;;;;20.60;34.80;;;;;;8367343;28;20290;-45
2023/02/23 08:56:19;;;;;;;;;;;20.60;34.70;;;;;;8368021;28;20011;-46
2023/02/23 09:00:20;;;;;;;;;;;20.60;34.80;;;;;;8368356;28;19932;-42
2023/02/23 09:04:20;;;;;;;;;;;20.60;34.80;;;;;;8367098;28;19921;-44
2023/02/23 09:08:21;;;;;;;;;;;20.60;34.80;;;;;;8367960;28;19983;-44
2023/02/23 09:12:22;;;;;;;;;;;20.60;34.80;;;;;;8367424;28;19917;-44
2023/02/23 09:16:22;;;;;;;;;;;20.60;34.80;;;;;;8366804;28;19921;-43
2023/02/23 09:20:25;;;;;;;;;;;20.50;34.90;;;;;;8367257;28;19913;-44
2023/02/23 09:24:26;;;;;;;;;;;20.50;34.80;;;;;;8367111;28;19940;-45
2023/02/23 09:28:29;;;;;;;;;;;20.50;34.80;;;;;;8366240;28;19921;-44
2023/02/23 09:32:29;;;;;;;;;;;20.50;34.80;;;;;;8366794;28;19917;-43
2023/02/23 09:36:30;;;;;;;;;;;20.50;34.80;;;;;;8366290;28;20396;-41
2023/02/23 09:40:45;;;;;;;;;;;20.50;34.80;;;;;;8367097;28;19962;-43
2023/02/23 09:44:56;;;;;;;;;;;20.50;34.90;;;;;;8366174;28;20291;-44
2023/02/23 09:48:58;;;;;;;;;;;20.50;34.80;;;;;;8365910;28;19917;-42
2023/02/23 09:53:01;;;;;;;;;;;20.50;34.80;;;;;;8366070;28;20067;-43
2023/02/23 09:57:03;;;;;;;;;;;20.50;34.80;;;;;;8365947;28;20382;-44
2023/02/23 10:01:04;;;;;;;;;;;20.50;34.70;;;;;;8365347;28;19928;-44
2023/02/23 10:05:06;;;;;;;;;;;20.50;34.70;;;;;;8365816;28;19916;-45
2023/02/23 10:09:16;;;;;;;;;;;20.50;35.20;;;;;;8365904;28;19912;-42
2023/02/23 10:13:37;;;;;;;;;;;20.50;34.70;;;;;;8364879;28;19931;-46
2023/02/23 10:17:41;;;;;;;;;;;20.50;34.70;;;;;;8365318;28;19991;-43
2023/02/23 10:21:53;;;;;;;;;;;20.50;34.80;;;;;;8365113;28;19917;-43
2023/02/23 10:25:58;;;;;;;;;;;20.50;34.80;;;;;;8365348;28;19924;-43
2023/02/23 10:30:00;;;;;;;;;;;20.50;34.80;;;;;;8364973;28;20301;-44
2023/02/23 10:34:03;;;;;;;;;;;20.50;34.70;;;;;;8364090;28;19924;-42
2023/02/23 10:38:04;;;;;;;;;;;20.50;34.70;;;;;;8364958;28;19920;-42
2023/02/23 10:42:06;;;;;;;;;;;20.50;34.70;;;;;;8364612;28;19916;-42
2023/02/23 10:46:10;;;;;;;;;;;20.50;34.80;;;;;;8363609;28;20042;-43
2023/02/23 10:50:12;;;;;;;;;;;20.50;34.70;;;;;;8364460;28;19921;-44
2023/02/23 10:54:31;;;;;;;;;;;20.50;34.70;;;;;;8364216;28;20447;-44
2023/02/23 10:58:40;;;;;;;;;;;20.50;34.60;;;;;;8363830;28;19923;-44
2023/02/23 11:02:41;;;;;;;;;;;20.50;34.60;;;;;;8364043;28;19916;-43
2023/02/23 11:06:42;;;;;;;;;;;20.50;34.80;;;;;;8362403;28;19917;-44
2023/02/23 11:10:53;;;;;;;;;;;20.50;34.80;;;;;;8363720;28;20039;-44
2023/02/23 11:14:57;;;;;;;;;;;20.50;34.70;;;;;;8363566;28;19928;-44
2023/02/23 11:18:59;;;;;;;;;;;20.50;34.70;;;;;;8363074;28;19920;-43
2023/02/23 11:22:59;;;;;;;;;;;20.50;34.60;;;;;;8363491;28;19921;-45
2023/02/23 11:27:02;;;;;;;;;;;20.50;34.60;;;;;;8364096;28;19917;-44
2023/02/23 11:31:07;;;;;;;;;;;20.50;34.70;;;;;;8345104;28;19917;-44
2023/02/23 11:35:20;;;;;;;;;;;20.50;34.70;;;;;;8363298;28;19931;-43
2023/02/23 11:39:22;;;;;;;;;;;20.50;34.70;;;;;;8363061;28;19920;-44
2023/02/23 11:43:22;;;;;;;;;;;20.50;34.70;;;;;;8362559;28;19924;-44
2023/02/23 11:47:24;;;;;;;;;;;20.50;34.60;;;;;;8362895;28;19921;-43
2023/02/23 11:51:27;;;;;;;;;;;20.50;34.60;;;;;;8363684;28;19913;-44
2023/02/23 11:55:29;;;;;;;;;;;20.50;34.60;;;;;;8362477;28;19931;-43
2023/02/23 11:59:33;;;;;;;;;;;20.50;34.60;;;;;;8367656;28;19921;-44
2023/02/23 12:03:34;;;;;;;;;;;20.50;34.60;;;;;;8369103;28;19970;-42
2023/02/23 12:07:40;;;;;;;;;;;20.50;34.60;;;;;;8369295;28;19931;-43
2023/02/23 12:11:43;;;;;;;;;;;20.50;34.60;;;;;;8369829;28;20509;-44
2023/02/23 12:15:47;;;;;;;;;;;20.50;34.60;;;;;;8368725;28;20294;-43
2023/02/23 12:20:09;;;;;;;;;;;20.50;34.60;;;;;;8369130;28;19916;-43
2023/02/23 12:24:24;;;;;;;;;;;20.50;34.60;;;;;;8328934;28;19963;-43
2023/02/23 12:28:29;;;;;;;;;;;20.50;34.60;;;;;;8368307;28;19921;-43
2023/02/23 12:32:40;;;;;;;;;;;20.50;34.70;;;;;;8369129;28;19920;-44
2023/02/23 12:36:44;;;;;;;;;;;20.50;34.60;;;;;;8368389;28;20381;-43
2023/02/23 12:40:45;;;;;;;;;;;20.50;34.60;;;;;;8368281;28;19917;-43
2023/02/23 12:44:50;;;;;;;;;;;20.50;34.50;;;;;;8368462;28;19917;-43
2023/02/23 12:49:04;;;;;;;;;;;20.50;34.50;;;;;;8367681;28;19957;-43
2023/02/23 12:53:17;;;;;;;;;;;20.60;34.60;;;;;;8368214;28;21405;-44
2023/02/23 12:57:22;;;;;;;;;;;20.60;34.60;;;;;;8369143;28;19913;-44
2023/02/23 13:01:28;;;;;;;;;;;20.50;34.60;;;;;;8365056;28;19928;-43
2023/02/23 13:05:31;;;;;;;;;;;20.50;34.60;;;;;;8367805;28;19917;-44
2023/02/23 13:09:43;;;;;;;;;;;20.60;35.30;;;;;;8365972;28;19985;-43
2023/02/23 13:13:52;;;;;;;;;;;20.60;35.50;;;;;;8361831;28;19921;-43
2023/02/23 13:17:53;;;;;;;;;;;20.60;35.40;;;;;;8334543;28;19925;-45
2023/02/23 13:21:57;;;;;;;;;;;20.50;35.40;;;;;;8363541;28;20285;-44
2023/02/23 13:26:11;;;;;;;;;;;20.50;35.30;;;;;;8363892;28;19916;-44
2023/02/23 13:30:12;;;;;;;;;;;20.50;35.20;;;;;;8364181;28;19920;-44
2023/02/23 13:34:31;;;;;;;;;;;20.50;35.10;;;;;;8363408;28;20274;-44
2023/02/23 13:38:38;;;;;;;;;;;20.50;35.10;;;;;;8366594;28;20012;-44
2023/02/23 13:42:39;;;;;;;;;;;20.50;35.20;;;;;;8351196;28;19920;-45
2023/02/23 13:46:44;;;;;;;;;;;20.50;35.20;;;;;;8363726;28;19917;-46
2023/02/23 13:50:58;;;;;;;;;;;20.50;35.30;;;;;;8365436;28;19923;-45
2023/02/23 13:55:02;;;;;;;;;;;20.50;35.30;;;;;;8364597;28;19929;-45
2023/02/23 13:59:07;;;;;;;;;;;20.50;35.30;;;;;;8366241;28;20402;-45
2023/02/23 14:03:19;;;;;;;;;;;20.50;35.20;;;;;;8363245;28;19999;-45
2023/02/23 14:07:25;;;;;;;;;;;20.50;35.10;;;;;;8332829;28;19917;-47
2023/02/23 14:11:35;;;;;;;;;;;20.50;35.00;;;;;;8359286;28;19917;-45
2023/02/23 14:15:39;;;;;;;;;;;20.50;34.90;;;;;;8365430;28;20396;-45
2023/02/23 14:20:03;;;;;;;;;;;20.50;34.90;;;;;;8364948;28;19999;-45
2023/02/23 14:24:04;;;;;;;;;;;20.60;34.90;;;;;;8328076;28;20370;-45
2023/02/23 14:28:23;;;;;;;;;;;20.50;35.40;;;;;;8364956;28;19959;-45
2023/02/23 14:32:24;;;;;;;;;;;20.50;34.80;;;;;;8365262;28;20309;-45
2023/02/23 14:36:24;;;;;;;;;;;20.50;34.90;;;;;;8364856;28;19931;-45
2023/02/23 14:40:31;;;;;;;;;;;20.50;34.90;;;;;;8364280;28;19917;-44
2023/02/23 14:44:35;;;;;;;;;;;20.50;34.90;;;;;;8369644;28;19928;-44
2023/02/23 14:48:39;;;;;;;;;;;20.50;34.90;;;;;;8364084;28;19971;-45
2023/02/23 14:52:40;;;;;;;;;;;20.50;34.90;;;;;;8364623;28;19924;-44
2023/02/23 14:56:47;;;;;;;;;;;20.50;34.80;;;;;;8364380;28;19924;-44
2023/02/23 15:00:50;;;;;;;;;;;20.50;34.80;;;;;;8363829;28;19920;-44
2023/02/23 15:04:51;;;;;;;;;;;20.50;34.80;;;;;;8363951;28;19921;-44
2023/02/23 15:08:52;;;;;;;;;;;20.50;34.90;;;;;;8363837;28;19912;-44
2023/02/23 15:12:52;;;;;;;;;;;20.50;34.90;;;;;;8363546;28;19912;-44
2023/02/23 15:16:54;;;;;;;;;;;20.50;34.90;;;;;;8363718;28;20020;-44
2023/02/23 15:20:55;;;;;;;;;;;20.50;34.90;;;;;;8363456;28;19917;-44
2023/02/23 15:24:58;;;;;;;;;;;20.50;34.90;;;;;;8362889;28;20054;-44
2023/02/23 15:29:05;;;;;;;;;;;20.50;34.80;;;;;;8363332;28;20247;-45
2023/02/23 15:33:10;;;;;;;;;;;20.40;34.80;;;;;;8363230;28;19921;-45
2023/02/23 15:37:26;;;;;;;;;;;20.40;34.80;;;;;;8362946;28;20007;-45
2023/02/23 15:41:33;;;;;;;;;;;20.40;34.90;;;;;;8363387;28;20393;-44
2023/02/23 15:45:35;;;;;;;;;;;20.40;34.90;;;;;;8362547;28;20429;-44
2023/02/23 15:49:39;;;;;;;;;;;20.40;34.90;;;;;;8363194;28;20374;-43
2023/02/23 15:53:39;;;;;;;;;;;20.40;34.80;;;;;;8363163;28;20271;-44
2023/02/23 15:57:46;;;;;;;;;;;20.40;34.90;;;;;;8362344;28;19920;-44
2023/02/23 16:01:46;;;;;;;;;;;20.40;34.90;;;;;;8363375;28;19921;-44
2023/02/23 16:06:13;;;;;;;;;;;20.40;34.90;;;;;;8362626;28;20385;-44
2023/02/23 16:10:16;;;;;;;;;;;20.40;35.00;;;;;;8357887;28;19978;-44
2023/02/23 16:14:18;;;;;;;;;;;20.40;35.00;;;;;;8362374;28;19925;-44
2023/02/23 16:18:22;;;;;;;;;;;20.50;34.80;;;;;;8362474;28;20289;-44
2023/02/23 16:22:23;;;;;;;;;;;20.60;34.80;;;;;;8361633;28;19968;-44
2023/02/23 16:26:44;;;;;;;;;;;20.60;34.80;;;;;;8362224;28;19917;-47
2023/02/23 16:31:02;;;;;;;;;;;20.70;34.70;;;;;;8361802;28;20366;-46
2023/02/23 16:35:14;;;;;;;;;;;20.80;34.70;;;;;;8362229;28;19921;-45
2023/02/23 16:39:17;;;;;;;;;;;20.80;34.60;;;;;;8362544;28;19948;-45
2023/02/23 16:43:17;;;;;;;;;;;20.80;34.60;;;;;;8362764;28;20393;-45
2023/02/23 16:47:18;;;;;;;;;;;21.00;34.70;;;;;;8368372;28;19924;-46
2023/02/23 16:51:20;;;;;;;;;;;21.00;34.60;;;;;;8367873;28;19958;-44
2023/02/23 16:55:24;;;;;;;;;;;21.00;34.50;;;;;;8367217;28;19971;-45
2023/02/23 16:59:25;;;;;;;;;;;21.10;34.60;;;;;;8368024;28;20425;-44
2023/02/23 17:03:26;;;;;;;;;;;21.10;34.50;;;;;;8368144;28;19921;-45
2023/02/23 17:07:27;;;;;;;;;;;21.10;34.50;;;;;;8352775;28;19920;-46
2023/02/23 17:11:27;;;;;;;;;;;21.20;34.50;;;;;;8350906;28;19916;-46
2023/02/23 17:15:29;;;;;;;;;;;21.20;34.50;;;;;;8367182;28;19943;-45
2023/02/23 17:19:29;;;;;;;;;;;21.20;34.50;;;;;;8366979;28;19921;-45
2023/02/23 17:23:37;;;;;;;;;;;21.20;34.50;;;;;;8367175;28;19986;-44
2023/02/23 17:27:38;;;;;;;;;;;21.20;34.50;;;;;;8366425;28;19923;-46
2023/02/23 17:31:38;;;;;;;;;;;21.20;34.60;;;;;;8367005;28;19917;-46
2023/02/23 17:35:39;;;;;;;;;;;21.20;34.60;;;;;;8366692;28;19921;-45
2023/02/23 17:39:40;;;;;;;;;;;21.20;34.60;;;;;;8366320;28;19992;-45
2023/02/23 17:43:40;;;;;;;;;;;21.20;34.70;;;;;;8366307;28;19917;-45
2023/02/23 17:47:42;;;;;;;;;;;21.20;34.60;;;;;;8366381;28;19995;-43
2023/02/23 17:51:42;;;;;;;;;;;21.20;34.60;;;;;;8365869;28;19938;-46
2023/02/23 17:55:44;;;;;;;;;;;21.20;34.60;;;;;;8366398;28;20329;-44
2023/02/23 17:59:44;;;;;;;;;;;21.10;34.60;;;;;;8366638;28;20286;-44
2023/02/23 18:03:46;;;;;;;;;;;21.10;34.60;;;;;;8365483;28;19917;-45
2023/02/23 18:07:47;;;;;;;;;;;21.10;35.20;;;;;;8365947;28;20004;-45
2023/02/23 18:11:47;;;;;;;;;;;21.10;34.60;;;;;;8365809;28;19917;-46
2023/02/23 18:15:52;;;;;;;;;;;21.10;34.80;;;;;;8364846;28;20338;-45
2023/02/23 18:19:52;;;;;;;;;;;21.10;34.80;;;;;;8365619;28;20007;-44
2023/02/23 18:23:53;;;;;;;;;;;21.20;34.70;;;;;;8365460;28;20289;-44
2023/02/23 18:27:53;;;;;;;;;;;21.20;34.60;;;;;;8364546;28;19955;-44
2023/02/23 18:31:54;;;;;;;;;;;21.30;34.60;;;;;;8364911;28;19917;-45
2023/02/23 18:35:55;;;;;;;;;;;21.30;34.60;;;;;;8364967;28;20034;-45
2023/02/23 18:39:58;;;;;;;;;;;21.30;34.60;;;;;;8364364;28;19919;-45
2023/02/23 18:43:59;;;;;;;;;;;21.30;34.60;;;;;;8364567;28;19923;-44
2023/02/23 18:48:00;;;;;;;;;;;21.30;34.60;;;;;;8364501;28;20378;-44
2023/02/23 18:52:00;;;;;;;;;;;21.30;34.60;;;;;;8363827;28;19927;-45
2023/02/23 18:56:04;;;;;;;;;;;21.30;34.60;;;;;;8364469;28;20416;-44
2023/02/23 19:00:12;;;;;;;;;;;21.30;34.60;;;;;;8365018;28;19925;-44
2023/02/23 19:04:12;;;;;;;;;;;21.30;34.60;;;;;;8363587;28;19924;-44
2023/02/23 19:08:14;;;;;;;;;;;21.30;34.60;;;;;;8363843;28;19963;-44
2023/02/23 19:12:15;;;;;;;;;;;21.20;34.50;;;;;;8364217;28;19948;-44
2023/02/23 19:16:15;;;;;;;;;;;21.20;34.50;;;;;;8363207;28;19925;-45
2023/02/23 19:20:16;;;;;;;;;;;21.20;34.50;;;;;;8363776;28;20380;-45
2023/02/23 19:24:16;;;;;;;;;;;21.20;34.60;;;;;;8363676;28;19916;-46
2023/02/23 19:28:17;;;;;;;;;;;21.20;34.60;;;;;;8362967;28;20373;-44
2023/02/23 19:32:17;;;;;;;;;;;21.20;34.50;;;;;;8363524;28;19924;-44
2023/02/23 19:36:20;;;;;;;;;;;21.20;34.50;;;;;;8363106;28;19932;-44
2023/02/23 19:40:21;;;;;;;;;;;21.20;34.50;;;;;;8362837;28;19913;-44
2023/02/23 19:44:22;;;;;;;;;;;21.20;34.50;;;;;;8363049;28;19921;-44
2023/02/23 19:48:24;;;;;;;;;;;21.20;34.60;;;;;;8362801;28;19917;-43
2023/02/23 19:52:27;;;;;;;;;;;21.20;34.50;;;;;;8362266;28;20408;-44
2023/02/23 19:56:28;;;;;;;;;;;21.20;34.50;;;;;;8362980;28;19924;-43
2023/02/23 20:00:28;;;;;;;;;;;21.20;34.50;;;;;;8363573;28;19928;-44
2023/02/23 20:04:28;;;;;;;;;;;21.10;34.40;;;;;;8362463;28;19940;-44
2023/02/23 20:08:29;;;;;;;;;;;21.20;34.50;;;;;;8361529;28;20378;-43
2023/02/23 20:12:30;;;;;;;;;;;21.20;34.50;;;;;;8362708;28;19916;-44
2023/02/23 20:16:32;;;;;;;;;;;21.10;34.40;;;;;;8362368;28;19967;-44
2023/02/23 20:20:33;;;;;;;;;;;21.20;34.50;;;;;;8367851;28;19980;-43
2023/02/23 20:24:34;;;;;;;;;;;21.20;34.50;;;;;;8367923;28;20441;-45
2023/02/23 20:28:35;;;;;;;;;;;21.20;34.50;;;;;;8368902;28;19920;-44
2023/02/23 20:32:36;;;;;;;;;;;21.20;34.50;;;;;;8369045;28;20446;-44
2023/02/23 20:36:36;;;;;;;;;;;21.10;34.50;;;;;;8368064;28;19924;-43
2023/02/23 20:40:37;;;;;;;;;;;21.10;34.40;;;;;;8369141;28;19913;-43
2023/02/23 20:44:37;;;;;;;;;;;21.10;34.50;;;;;;8368618;28;19963;-43
2023/02/23 20:48:38;;;;;;;;;;;21.10;34.40;;;;;;8368056;28;20393;-43
2023/02/23 20:52:40;;;;;;;;;;;21.10;34.40;;;;;;8368612;28;20019;-44
2023/02/23 20:56:41;;;;;;;;;;;21.10;34.40;;;;;;8368208;28;19932;-45
2023/02/23 21:00:41;;;;;;;;;;;21.10;34.40;;;;;;8368222;28;20286;-43
2023/02/23 21:04:43;;;;;;;;;;;21.10;34.40;;;;;;8367838;28;19920;-46
2023/02/23 21:08:47;;;;;;;;;;;21.10;34.40;;;;;;8367816;28;19917;-43
2023/02/23 21:12:48;;;;;;;;;;;21.10;34.40;;;;;;8367031;28;19923;-45
2023/02/23 21:16:48;;;;;;;;;;;21.10;34.40;;;;;;8367714;28;20374;-44
2023/02/23 21:20:48;;;;;;;;;;;21.10;34.30;;;;;;8367864;28;19913;-43
2023/02/23 21:24:49;;;;;;;;;;;21.10;34.30;;;;;;8366836;28;19959;-43
2023/02/23 21:28:49;;;;;;;;;;;21.10;34.30;;;;;;8366664;28;19924;-44
2023/02/23 21:32:51;;;;;;;;;;;21.10;34.30;;;;;;8367186;28;19917;-44
2023/02/23 21:36:52;;;;;;;;;;;21.10;34.30;;;;;;8366769;28;19933;-43
2023/02/23 21:40:52;;;;;;;;;;;21.10;34.40;;;;;;8367295;28;19913;-43
2023/02/23 21:44:53;;;;;;;;;;;21.00;34.30;;;;;;8366714;28;19924;-43
2023/02/23 21:48:53;;;;;;;;;;;21.00;34.30;;;;;;8366135;28;19916;-43
2023/02/23 21:52:56;;;;;;;;;;;21.00;34.30;;;;;;8366665;28;19962;-44
2023/02/23 21:56:57;;;;;;;;;;;21.10;34.30;;;;;;8366747;28;19931;-44
2023/02/23 22:00:57;;;;;;;;;;;21.00;34.20;;;;;;8366032;28;19952;-43
2023/02/23 22:04:57;;;;;;;;;;;21.10;34.40;;;;;;8366162;28;19917;-43
2023/02/23 22:08:58;;;;;;;;;;;21.10;34.20;;;;;;8366180;28;19921;-43
2023/02/23 22:12:59;;;;;;;;;;;21.10;34.10;;;;;;8365039;28;20485;-43
2023/02/23 22:17:00;;;;;;;;;;;21.10;34.10;;;;;;8347894;28;19924;-42
2023/02/23 22:21:02;;;;;;;;;;;21.00;34.10;;;;;;8365954;28;19921;-43
2023/02/23 22:25:04;;;;;;;;;;;21.00;34.10;;;;;;8364983;28;19917;-43
2023/02/23 22:29:05;;;;;;;;;;;21.00;34.10;;;;;;8365251;28;20304;-42
2023/02/23 22:33:06;;;;;;;;;;;20.90;34.10;;;;;;8365324;28;19913;-43
2023/02/23 22:37:06;;;;;;;;;;;20.90;34.10;;;;;;8364625;28;19924;-43
2023/02/23 22:41:10;;;;;;;;;;;20.90;34.10;;;;;;8364197;28;19917;-43
2023/02/23 22:45:10;;;;;;;;;;;20.80;34.10;;;;;;8364702;28;19917;-43
2023/02/23 22:49:13;;;;;;;;;;;20.80;34.10;;;;;;8364265;28;19964;-43
2023/02/23 22:53:13;;;;;;;;;;;20.80;34.20;;;;;;8364599;28;19912;-43
2023/02/23 22:57:14;;;;;;;;;;;20.80;34.20;;;;;;8364478;28;19971;-43
2023/02/23 23:01:16;;;;;;;;;;;20.70;34.20;;;;;;8363678;28;19943;-43
2023/02/23 23:05:16;;;;;;;;;;;20.70;34.20;;;;;;8364007;28;19916;-43
2023/02/23 23:09:19;;;;;;;;;;;20.70;34.20;;;;;;8345779;28;19921;-43
2023/02/23 23:13:20;;;;;;;;;;;20.60;34.20;;;;;;8342127;28;19952;-42
2023/02/23 23:17:21;;;;;;;;;;;20.60;34.30;;;;;;8363883;28;19917;-41
2023/02/23 23:21:23;;;;;;;;;;;20.60;34.30;;;;;;8364019;28;19952;-42
2023/02/23 23:25:23;;;;;;;;;;;20.60;34.30;;;;;;8362987;28;20288;-42
2023/02/23 23:29:24;;;;;;;;;;;20.50;34.20;;;;;;8363653;28;19924;-42
2023/02/23 23:33:25;;;;;;;;;;;20.50;34.20;;;;;;8363153;28;19974;-43
2023/02/23 23:37:29;;;;;;;;;;;20.50;34.20;;;;;;8362832;28;19917;-42
2023/02/23 23:41:34;;;;;;;;;;;20.50;34.30;;;;;;8363654;28;20327;-42
2023/02/23 23:45:37;;;;;;;;;;;20.50;34.30;;;;;;8362718;28;19917;-41
2023/02/23 23:49:38;;;;;;;;;;;20.40;34.20;;;;;;8362982;28;19963;-42
2023/02/23 23:53:39;;;;;;;;;;;20.40;34.20;;;;;;8362777;28;20012;-42
2023/02/23 23:57:40;;;;;;;;;;;20.40;34.30;;;;;;8362501;28;19920;-42
